sensor_id;sensor_type;location;lat;lon;timestamp;pressure;altitude;pressure_sealevel;temperature;humidity
40838;BME280;29632;49.168;9.848;2023-06-22T00:02:16;96969.34;;;25.66;43.45
40838;BME280;29632;49.168;9.848;2023-06-22T00:04:42;96958.56;;;25.60;43.51
40838;BME280;29632;49.168;9.848;2023-06-22T00:07:08;96943.84;;;25.58;43.58
40838;BME280;29632;49.168;9.848;2023-06-22T00:09:34;96940.59;;;25.56;43.74
40838;BME280;29632;49.168;9.848;2023-06-22T00:11:59;96924.59;;;25.56;43.52
40838;BME280;29632;49.168;9.848;2023-06-22T00:14:25;96921.13;;;25.55;43.54
40838;BME280;29632;49.168;9.848;2023-06-22T00:16:51;96909.91;;;25.53;43.35
40838;BME280;29632;49.168;9.848;2023-06-22T00:19:21;96904.25;;;25.50;43.53
40838;BME280;29632;49.168;9.848;2023-06-22T00:21:47;96891.94;;;25.49;43.51
40838;BME280;29632;49.168;9.848;2023-06-22T00:24:21;96892.63;;;25.44;43.59
40838;BME280;29632;49.168;9.848;2023-06-22T00:26:48;96893.94;;;25.41;43.45
40838;BME280;29632;49.168;9.848;2023-06-22T00:29:13;96883.75;;;25.38;43.92
40838;BME280;29632;49.168;9.848;2023-06-22T00:31:39;96877.03;;;25.36;43.69
40838;BME280;29632;49.168;9.848;2023-06-22T00:34:04;96885.03;;;25.36;43.69
40838;BME280;29632;49.168;9.848;2023-06-22T00:36:32;96870.31;;;25.33;43.40
40838;BME280;29632;49.168;9.848;2023-06-22T00:38:57;96865.44;;;25.30;43.92
40838;BME280;29632;49.168;9.848;2023-06-22T00:41:23;96865.56;;;25.23;43.62
40838;BME280;29632;49.168;9.848;2023-06-22T00:43:48;96885.25;;;25.22;43.66
40838;BME280;29632;49.168;9.848;2023-06-22T00:46:14;96863.38;;;25.20;43.82
40838;BME280;29632;49.168;9.848;2023-06-22T00:48:40;96864.88;;;25.16;43.64
40838;BME280;29632;49.168;9.848;2023-06-22T00:51:09;96863.72;;;25.12;43.71
40838;BME280;29632;49.168;9.848;2023-06-22T00:53:35;96871.16;;;25.10;44.23
40838;BME280;29632;49.168;9.848;2023-06-22T00:56:02;96859.34;;;25.06;43.76
40838;BME280;29632;49.168;9.848;2023-06-22T00:58:29;96863.84;;;25.05;44.08
40838;BME280;29632;49.168;9.848;2023-06-22T01:00:55;96859.00;;;25.02;44.02
40838;BME280;29632;49.168;9.848;2023-06-22T01:03:20;96855.50;;;25.02;43.92
40838;BME280;29632;49.168;9.848;2023-06-22T01:05:46;96868.50;;;24.98;44.12
40838;BME280;29632;49.168;9.848;2023-06-22T01:08:33;96874.53;;;24.94;43.87
40838;BME280;29632;49.168;9.848;2023-06-22T01:11:18;96871.88;;;24.94;44.02
40838;BME280;29632;49.168;9.848;2023-06-22T01:13:59;96894.22;;;24.93;43.95
40838;BME280;29632;49.168;9.848;2023-06-22T01:16:34;96890.97;;;24.91;43.88
40838;BME280;29632;49.168;9.848;2023-06-22T01:19:05;96899.44;;;24.87;43.95
40838;BME280;29632;49.168;9.848;2023-06-22T01:21:34;96902.53;;;24.84;44.07
40838;BME280;29632;49.168;9.848;2023-06-22T01:24:23;96929.19;;;24.84;44.21
40838;BME280;29632;49.168;9.848;2023-06-22T01:29:56;96917.72;;;24.84;44.33
40838;BME280;29632;49.168;9.848;2023-06-22T01:32:30;96932.06;;;24.83;44.05
40838;BME280;29632;49.168;9.848;2023-06-22T01:34:59;96927.56;;;24.83;44.28
40838;BME280;29632;49.168;9.848;2023-06-22T01:37:25;96927.56;;;24.83;44.05
40838;BME280;29632;49.168;9.848;2023-06-22T01:39:51;96961.97;;;24.85;44.04
40838;BME280;29632;49.168;9.848;2023-06-22T01:42:18;96993.09;;;24.84;44.38
40838;BME280;29632;49.168;9.848;2023-06-22T01:44:44;96997.84;;;24.82;44.35
40838;BME280;29632;49.168;9.848;2023-06-22T01:47:10;96992.53;;;24.82;44.47
40838;BME280;29632;49.168;9.848;2023-06-22T01:49:36;96989.84;;;24.82;44.14
40838;BME280;29632;49.168;9.848;2023-06-22T01:52:02;96995.19;;;24.82;44.11
40838;BME280;29632;49.168;9.848;2023-06-22T01:54:29;96998.66;;;24.83;44.53
40838;BME280;29632;49.168;9.848;2023-06-22T01:56:55;96979.22;;;24.82;44.34
40838;BME280;29632;49.168;9.848;2023-06-22T02:02:06;96978.97;;;24.84;44.19
40838;BME280;29632;49.168;9.848;2023-06-22T02:04:59;96967.53;;;24.83;44.12
40838;BME280;29632;49.168;9.848;2023-06-22T02:07:33;96974.22;;;24.86;44.11
40838;BME280;29632;49.168;9.848;2023-06-22T02:09:59;96975.03;;;24.86;44.30
40838;BME280;29632;49.168;9.848;2023-06-22T02:12:27;96969.72;;;24.86;44.34
40838;BME280;29632;49.168;9.848;2023-06-22T02:14:54;96963.56;;;24.86;44.52
40838;BME280;29632;49.168;9.848;2023-06-22T02:17:20;96969.72;;;24.86;44.36
40838;BME280;29632;49.168;9.848;2023-06-22T02:19:46;96967.03;;;24.86;44.16
40838;BME280;29632;49.168;9.848;2023-06-22T02:22:11;96956.38;;;24.86;44.70
40838;BME280;29632;49.168;9.848;2023-06-22T02:24:39;96954.56;;;24.87;44.24
40838;BME280;29632;49.168;9.848;2023-06-22T02:27:05;96958.03;;;24.87;44.38
40838;BME280;29632;49.168;9.848;2023-06-22T02:29:32;96956.38;;;24.86;44.44
40838;BME280;29632;49.168;9.848;2023-06-22T02:31:58;96952.69;;;24.87;44.38
40838;BME280;29632;49.168;9.848;2023-06-22T02:34:24;96950.03;;;24.87;44.38
40838;BME280;29632;49.168;9.848;2023-06-22T02:36:50;96946.56;;;24.87;44.60
40838;BME280;29632;49.168;9.848;2023-06-22T02:39:25;96950.84;;;24.88;44.43
40838;BME280;29632;49.168;9.848;2023-06-22T02:41:52;96957.00;;;24.88;44.63
40838;BME280;29632;49.168;9.848;2023-06-22T02:44:19;96955.13;;;24.89;44.60
40838;BME280;29632;49.168;9.848;2023-06-22T02:46:45;96934.63;;;24.90;44.42
40838;BME280;29632;49.168;9.848;2023-06-22T02:49:11;96926.63;;;24.90;44.41
40838;BME280;29632;49.168;9.848;2023-06-22T02:51:38;96927.47;;;24.90;44.39
40838;BME280;29632;49.168;9.848;2023-06-22T02:54:05;96935.69;;;24.88;44.76
40838;BME280;29632;49.168;9.848;2023-06-22T02:56:31;96937.28;;;24.90;44.90
40838;BME280;29632;49.168;9.848;2023-06-22T02:58:57;96931.97;;;24.90;44.77
40838;BME280;29632;49.168;9.848;2023-06-22T03:01:29;96923.41;;;24.87;44.82
40838;BME280;29632;49.168;9.848;2023-06-22T03:03:59;96922.38;;;24.88;44.95
40838;BME280;29632;49.168;9.848;2023-06-22T03:06:24;96917.84;;;24.89;44.90
40838;BME280;29632;49.168;9.848;2023-06-22T03:09:00;96912.53;;;24.89;44.68
40838;BME280;29632;49.168;9.848;2023-06-22T03:11:26;96908.00;;;24.90;44.77
40838;BME280;29632;49.168;9.848;2023-06-22T03:13:52;96902.66;;;24.90;45.04
40838;BME280;29632;49.168;9.848;2023-06-22T03:16:18;96902.44;;;24.91;44.90
40838;BME280;29632;49.168;9.848;2023-06-22T03:18:44;96903.25;;;24.92;44.82
40838;BME280;29632;49.168;9.848;2023-06-22T03:21:10;96900.56;;;24.92;44.52
40838;BME280;29632;49.168;9.848;2023-06-22T03:23:36;96902.22;;;24.93;44.96
40838;BME280;29632;49.168;9.848;2023-06-22T03:26:02;96884.34;;;24.93;44.93
40838;BME280;29632;49.168;9.848;2023-06-22T03:28:29;96888.66;;;24.94;44.77
40838;BME280;29632;49.168;9.848;2023-06-22T03:30:57;96893.19;;;24.94;45.05
40838;BME280;29632;49.168;9.848;2023-06-22T03:33:24;96907.31;;;24.94;44.69
40838;BME280;29632;49.168;9.848;2023-06-22T03:35:49;96896.66;;;24.94;44.89
40838;BME280;29632;49.168;9.848;2023-06-22T03:38:16;96894.78;;;24.95;44.83
40838;BME280;29632;49.168;9.848;2023-06-22T03:40:42;96886.56;;;24.96;44.99
40838;BME280;29632;49.168;9.848;2023-06-22T03:43:07;96891.09;;;24.96;44.69
40838;BME280;29632;49.168;9.848;2023-06-22T03:45:33;96888.44;;;24.96;44.99
40838;BME280;29632;49.168;9.848;2023-06-22T03:47:58;96889.22;;;24.96;45.15
40838;BME280;29632;49.168;9.848;2023-06-22T03:50:24;96882.03;;;24.97;45.14
40838;BME280;29632;49.168;9.848;2023-06-22T03:52:50;96875.69;;;24.98;44.75
40838;BME280;29632;49.168;9.848;2023-06-22T03:55:19;96874.66;;;24.99;45.12
40838;BME280;29632;49.168;9.848;2023-06-22T03:57:44;96888.78;;;24.99;44.86
40838;BME280;29632;49.168;9.848;2023-06-22T04:00:10;96897.34;;;25.01;44.69
40838;BME280;29632;49.168;9.848;2023-06-22T04:02:36;96882.97;;;25.02;44.96
40838;BME280;29632;49.168;9.848;2023-06-22T04:05:02;96868.59;;;25.03;45.24
40838;BME280;29632;49.168;9.848;2023-06-22T04:07:27;96872.06;;;25.04;44.89
40838;BME280;29632;49.168;9.848;2023-06-22T04:09:53;96883.56;;;25.04;45.11
40838;BME280;29632;49.168;9.848;2023-06-22T04:12:19;96903.81;;;25.05;45.11
40838;BME280;29632;49.168;9.848;2023-06-22T04:14:44;96891.09;;;25.08;44.77
40838;BME280;29632;49.168;9.848;2023-06-22T04:17:10;96867.91;;;25.08;45.18
40838;BME280;29632;49.168;9.848;2023-06-22T04:19:38;96870.13;;;25.11;45.14
40838;BME280;29632;49.168;9.848;2023-06-22T04:22:03;96886.91;;;25.12;45.06
40838;BME280;29632;49.168;9.848;2023-06-22T04:24:29;96894.66;;;25.13;45.26
40838;BME280;29632;49.168;9.848;2023-06-22T04:26:55;96880.28;;;25.14;44.91
40838;BME280;29632;49.168;9.848;2023-06-22T04:29:21;96869.38;;;25.16;45.02
40838;BME280;29632;49.168;9.848;2023-06-22T04:31:58;96854.22;;;25.16;45.19
40838;BME280;29632;49.168;9.848;2023-06-22T04:34:28;96862.81;;;25.18;45.17
40838;BME280;29632;49.168;9.848;2023-06-22T04:36:54;96870.28;;;25.21;44.93
40838;BME280;29632;49.168;9.848;2023-06-22T04:39:20;96871.69;;;25.24;45.21
40838;BME280;29632;49.168;9.848;2023-06-22T04:41:46;96870.44;;;25.27;45.13
40838;BME280;29632;49.168;9.848;2023-06-22T04:44:16;96859.06;;;25.31;45.24
40838;BME280;29632;49.168;9.848;2023-06-22T04:46:51;96847.94;;;25.34;45.03
40838;BME280;29632;49.168;9.848;2023-06-22T04:49:20;96845.06;;;25.36;45.01
40838;BME280;29632;49.168;9.848;2023-06-22T04:51:46;96849.88;;;25.39;44.96
40838;BME280;29632;49.168;9.848;2023-06-22T04:54:12;96862.75;;;25.42;45.12
40838;BME280;29632;49.168;9.848;2023-06-22T04:56:37;96863.09;;;25.46;44.94
40838;BME280;29632;49.168;9.848;2023-06-22T04:59:06;96855.41;;;25.49;45.18
40838;BME280;29632;49.168;9.848;2023-06-22T05:01:32;96843.25;;;25.53;45.14
40838;BME280;29632;49.168;9.848;2023-06-22T05:03:58;96836.63;;;25.56;45.23
40838;BME280;29632;49.168;9.848;2023-06-22T05:06:26;96839.06;;;25.57;44.93
40838;BME280;29632;49.168;9.848;2023-06-22T05:08:53;96840.19;;;25.61;44.92
40838;BME280;29632;49.168;9.848;2023-06-22T05:11:26;96836.25;;;25.64;45.12
40838;BME280;29632;49.168;9.848;2023-06-22T05:13:52;96836.56;;;25.68;44.99
40838;BME280;29632;49.168;9.848;2023-06-22T05:16:18;96827.03;;;25.72;45.26
40838;BME280;29632;49.168;9.848;2023-06-22T05:18:55;96830.88;;;25.76;44.97
40838;BME280;29632;49.168;9.848;2023-06-22T05:21:26;96824.00;;;25.80;45.22
40838;BME280;29632;49.168;9.848;2023-06-22T05:23:52;96822.44;;;25.84;45.00
40838;BME280;29632;49.168;9.848;2023-06-22T05:26:19;96832.19;;;25.90;44.86
40838;BME280;29632;49.168;9.848;2023-06-22T05:28:46;96822.66;;;25.94;44.80
40838;BME280;29632;49.168;9.848;2023-06-22T05:31:16;96823.53;;;26.00;44.79
40838;BME280;29632;49.168;9.848;2023-06-22T05:33:43;96828.97;;;26.05;45.00
40838;BME280;29632;49.168;9.848;2023-06-22T05:36:09;96828.03;;;26.11;45.33
40838;BME280;29632;49.168;9.848;2023-06-22T05:38:36;96826.47;;;26.15;44.71
40838;BME280;29632;49.168;9.848;2023-06-22T05:41:02;96831.91;;;26.21;44.82
40838;BME280;29632;49.168;9.848;2023-06-22T05:43:28;96834.66;;;26.26;44.88
40838;BME280;29632;49.168;9.848;2023-06-22T05:45:53;96841.94;;;26.30;44.81
40838;BME280;29632;49.168;9.848;2023-06-22T05:48:19;96837.47;;;26.36;44.92
40838;BME280;29632;49.168;9.848;2023-06-22T05:50:45;96830.59;;;26.40;44.82
40838;BME280;29632;49.168;9.848;2023-06-22T05:53:10;96824.53;;;26.45;44.93
40838;BME280;29632;49.168;9.848;2023-06-22T05:55:36;96816.59;;;26.50;44.93
40838;BME280;29632;49.168;9.848;2023-06-22T05:58:02;96817.22;;;26.57;44.89
40838;BME280;29632;49.168;9.848;2023-06-22T06:00:29;96812.00;;;26.62;45.09
40838;BME280;29632;49.168;9.848;2023-06-22T06:02:55;96807.53;;;26.68;44.83
40838;BME280;29632;49.168;9.848;2023-06-22T06:05:20;96815.59;;;26.73;45.06
40838;BME280;29632;49.168;9.848;2023-06-22T06:07:46;96809.28;;;26.79;44.84
40838;BME280;29632;49.168;9.848;2023-06-22T06:10:12;96809.59;;;26.83;44.98
40838;BME280;29632;49.168;9.848;2023-06-22T06:12:38;96817.69;;;26.88;44.77
40838;BME280;29632;49.168;9.848;2023-06-22T06:15:04;96815.09;;;26.93;44.99
40838;BME280;29632;49.168;9.848;2023-06-22T06:17:30;96817.00;;;26.98;44.71
40838;BME280;29632;49.168;9.848;2023-06-22T06:19:56;96818.69;;;27.04;44.80
40838;BME280;29632;49.168;9.848;2023-06-22T06:22:22;96814.94;;;27.05;44.94
40838;BME280;29632;49.168;9.848;2023-06-22T06:24:49;96819.56;;;27.09;44.65
40838;BME280;29632;49.168;9.848;2023-06-22T06:27:15;96818.81;;;27.14;44.88
40838;BME280;29632;49.168;9.848;2023-06-22T06:29:41;96816.22;;;27.19;44.84
40838;BME280;29632;49.168;9.848;2023-06-22T06:32:07;96809.53;;;27.22;44.83
40838;BME280;29632;49.168;9.848;2023-06-22T06:34:33;96808.59;;;27.28;44.82
40838;BME280;29632;49.168;9.848;2023-06-22T06:36:59;96816.38;;;27.35;44.79
40838;BME280;29632;49.168;9.848;2023-06-22T06:39:24;96805.19;;;27.38;44.85
40838;BME280;29632;49.168;9.848;2023-06-22T06:41:50;96798.03;;;27.43;44.80
40838;BME280;29632;49.168;9.848;2023-06-22T06:44:16;96791.94;;;27.48;44.75
40838;BME280;29632;49.168;9.848;2023-06-22T06:46:42;96791.50;;;27.56;44.86
40838;BME280;29632;49.168;9.848;2023-06-22T06:49:08;96785.69;;;27.64;44.84
40838;BME280;29632;49.168;9.848;2023-06-22T06:51:33;96787.03;;;27.67;44.63
40838;BME280;29632;49.168;9.848;2023-06-22T06:53:59;96790.53;;;27.67;44.88
40838;BME280;29632;49.168;9.848;2023-06-22T06:56:24;96787.34;;;27.71;44.59
40838;BME280;29632;49.168;9.848;2023-06-22T06:58:51;96784.16;;;27.74;44.65
40838;BME280;29632;49.168;9.848;2023-06-22T07:01:16;96777.78;;;27.80;44.68
40838;BME280;29632;49.168;9.848;2023-06-22T07:03:42;96772.47;;;27.85;44.78
40838;BME280;29632;49.168;9.848;2023-06-22T07:06:08;96776.03;;;27.91;44.73
40838;BME280;29632;49.168;9.848;2023-06-22T07:08:34;96774.72;;;27.93;44.84
40838;BME280;29632;49.168;9.848;2023-06-22T07:11:01;96772.91;;;27.99;44.56
40838;BME280;29632;49.168;9.848;2023-06-22T07:13:27;96775.09;;;28.07;44.39
40838;BME280;29632;49.168;9.848;2023-06-22T07:15:53;96780.00;;;28.15;44.62
40838;BME280;29632;49.168;9.848;2023-06-22T07:18:19;96779.50;;;28.23;44.47
40838;BME280;29632;49.168;9.848;2023-06-22T07:20:44;96775.81;;;28.30;44.56
40838;BME280;29632;49.168;9.848;2023-06-22T07:23:10;96783.06;;;28.39;44.45
40838;BME280;29632;49.168;9.848;2023-06-22T07:25:35;96784.47;;;28.47;44.21
40838;BME280;29632;49.168;9.848;2023-06-22T07:28:03;96782.94;;;28.56;44.15
40838;BME280;29632;49.168;9.848;2023-06-22T07:30:30;96782.47;;;28.65;44.39
40838;BME280;29632;49.168;9.848;2023-06-22T07:32:56;96782.25;;;28.71;44.51
40838;BME280;29632;49.168;9.848;2023-06-22T07:35:22;96782.53;;;28.75;44.04
40838;BME280;29632;49.168;9.848;2023-06-22T07:37:47;96777.44;;;28.78;44.24
40838;BME280;29632;49.168;9.848;2023-06-22T07:40:13;96774.78;;;28.84;44.01
40838;BME280;29632;49.168;9.848;2023-06-22T07:42:39;96776.66;;;28.88;44.09
40838;BME280;29632;49.168;9.848;2023-06-22T07:45:05;96775.91;;;28.93;44.25
40838;BME280;29632;49.168;9.848;2023-06-22T07:47:33;96771.34;;;28.98;44.12
40838;BME280;29632;49.168;9.848;2023-06-22T07:50:01;96770.31;;;29.05;43.95
40838;BME280;29632;49.168;9.848;2023-06-22T07:52:30;96769.25;;;29.11;44.12
40838;BME280;29632;49.168;9.848;2023-06-22T07:54:56;96767.44;;;29.16;43.90
40838;BME280;29632;49.168;9.848;2023-06-22T07:57:21;96769.31;;;29.21;43.66
40838;BME280;29632;49.168;9.848;2023-06-22T07:59:47;96754.34;;;29.25;43.82
40838;BME280;29632;49.168;9.848;2023-06-22T08:02:13;96750.84;;;29.30;43.75
40838;BME280;29632;49.168;9.848;2023-06-22T08:04:39;96746.84;;;29.32;43.69
40838;BME280;29632;49.168;9.848;2023-06-22T08:07:05;96743.88;;;29.39;43.57
40838;BME280;29632;49.168;9.848;2023-06-22T08:09:31;96743.91;;;29.49;43.50
40838;BME280;29632;49.168;9.848;2023-06-22T08:11:58;96742.84;;;29.55;43.55
40838;BME280;29632;49.168;9.848;2023-06-22T08:14:29;96739.91;;;29.62;43.29
40838;BME280;29632;49.168;9.848;2023-06-22T08:16:54;96737.75;;;29.69;43.54
40838;BME280;29632;49.168;9.848;2023-06-22T08:19:20;96730.25;;;29.71;43.51
40838;BME280;29632;49.168;9.848;2023-06-22T08:21:46;96724.38;;;29.80;43.54
40838;BME280;29632;49.168;9.848;2023-06-22T08:24:12;96723.81;;;29.88;43.39
40838;BME280;29632;49.168;9.848;2023-06-22T08:26:38;96716.03;;;29.91;42.95
40838;BME280;29632;49.168;9.848;2023-06-22T08:29:04;96713.06;;;29.98;43.20
40838;BME280;29632;49.168;9.848;2023-06-22T08:31:30;96709.06;;;30.06;42.91
40838;BME280;29632;49.168;9.848;2023-06-22T08:33:56;96709.56;;;30.13;43.26
40838;BME280;29632;49.168;9.848;2023-06-22T08:36:21;96706.31;;;30.21;43.15
40838;BME280;29632;49.168;9.848;2023-06-22T08:38:47;96711.41;;;30.28;42.97
40838;BME280;29632;49.168;9.848;2023-06-22T08:41:17;96705.22;;;30.33;42.87
40838;BME280;29632;49.168;9.848;2023-06-22T08:43:43;96710.63;;;30.38;42.97
40838;BME280;29632;49.168;9.848;2023-06-22T08:46:10;96706.03;;;30.43;42.93
40838;BME280;29632;49.168;9.848;2023-06-22T08:48:36;96700.38;;;30.50;43.02
40838;BME280;29632;49.168;9.848;2023-06-22T08:51:02;96699.25;;;30.56;42.80
40838;BME280;29632;49.168;9.848;2023-06-22T08:53:28;96703.56;;;30.62;42.70
40838;BME280;29632;49.168;9.848;2023-06-22T08:55:54;96700.84;;;30.67;42.72
40838;BME280;29632;49.168;9.848;2023-06-22T08:58:20;96711.03;;;30.76;42.60
40838;BME280;29632;49.168;9.848;2023-06-22T09:00:47;96719.59;;;30.83;42.60
40838;BME280;29632;49.168;9.848;2023-06-22T09:03:13;96727.06;;;30.91;42.29
40838;BME280;29632;49.168;9.848;2023-06-22T09:05:38;96737.00;;;31.01;42.22
40838;BME280;29632;49.168;9.848;2023-06-22T09:08:04;96741.00;;;31.09;42.17
40838;BME280;29632;49.168;9.848;2023-06-22T09:10:30;96747.66;;;31.21;42.32
40838;BME280;29632;49.168;9.848;2023-06-22T09:12:57;96746.00;;;31.31;42.08
40838;BME280;29632;49.168;9.848;2023-06-22T09:15:22;96743.25;;;31.41;42.12
40838;BME280;29632;49.168;9.848;2023-06-22T09:17:48;96749.09;;;31.53;41.80
40838;BME280;29632;49.168;9.848;2023-06-22T09:20:14;96746.34;;;31.64;41.63
40838;BME280;29632;49.168;9.848;2023-06-22T09:22:41;96745.44;;;31.73;41.78
40838;BME280;29632;49.168;9.848;2023-06-22T09:25:06;96740.81;;;31.84;41.56
40838;BME280;29632;49.168;9.848;2023-06-22T09:27:33;96738.03;;;31.94;41.57
40838;BME280;29632;49.168;9.848;2023-06-22T09:29:58;96735.53;;;32.03;41.60
40838;BME280;29632;49.168;9.848;2023-06-22T09:32:24;96731.16;;;32.12;41.66
40838;BME280;29632;49.168;9.848;2023-06-22T09:34:51;96732.66;;;32.24;41.30
40838;BME280;29632;49.168;9.848;2023-06-22T09:37:16;96724.25;;;32.30;41.36
40838;BME280;29632;49.168;9.848;2023-06-22T09:39:42;96723.69;;;32.33;41.12
40838;BME280;29632;49.168;9.848;2023-06-22T09:42:08;96723.63;;;32.39;41.54
40838;BME280;29632;49.168;9.848;2023-06-22T09:44:34;96716.00;;;32.46;41.45
40838;BME280;29632;49.168;9.848;2023-06-22T09:47:00;96705.97;;;32.51;41.22
40838;BME280;29632;49.168;9.848;2023-06-22T09:49:25;96700.75;;;32.60;41.05
40838;BME280;29632;49.168;9.848;2023-06-22T09:51:51;96701.50;;;32.66;41.21
40838;BME280;29632;49.168;9.848;2023-06-22T09:54:17;96697.38;;;32.73;41.07
40838;BME280;29632;49.168;9.848;2023-06-22T09:56:43;96703.44;;;32.84;41.03
40838;BME280;29632;49.168;9.848;2023-06-22T09:59:09;96705.00;;;32.90;41.09
40838;BME280;29632;49.168;9.848;2023-06-22T10:01:35;96711.03;;;33.01;40.90
40838;BME280;29632;49.168;9.848;2023-06-22T10:04:01;96699.28;;;33.11;40.65
40838;BME280;29632;49.168;9.848;2023-06-22T10:06:27;96709.19;;;33.21;40.83
40838;BME280;29632;49.168;9.848;2023-06-22T10:08:53;96706.13;;;33.27;40.51
40838;BME280;29632;49.168;9.848;2023-06-22T10:11:19;96702.53;;;33.32;40.52
40838;BME280;29632;49.168;9.848;2023-06-22T10:13:44;96709.19;;;33.40;40.38
40838;BME280;29632;49.168;9.848;2023-06-22T10:16:10;96722.53;;;33.50;40.45
40838;BME280;29632;49.168;9.848;2023-06-22T10:18:36;96736.44;;;33.57;40.54
40838;BME280;29632;49.168;9.848;2023-06-22T10:21:01;96730.69;;;33.64;40.39
40838;BME280;29632;49.168;9.848;2023-06-22T10:23:27;96728.22;;;33.67;40.30
40838;BME280;29632;49.168;9.848;2023-06-22T10:25:53;96711.94;;;33.73;40.32
40838;BME280;29632;49.168;9.848;2023-06-22T10:28:18;96699.34;;;33.82;39.81
40838;BME280;29632;49.168;9.848;2023-06-22T10:30:44;96693.78;;;33.92;40.17
40838;BME280;29632;49.168;9.848;2023-06-22T10:33:10;96690.38;;;34.00;40.05
40838;BME280;29632;49.168;9.848;2023-06-22T10:35:36;96702.13;;;34.10;39.71
40838;BME280;29632;49.168;9.848;2023-06-22T10:38:05;96702.22;;;34.18;39.45
40838;BME280;29632;49.168;9.848;2023-06-22T10:40:31;96702.97;;;34.24;39.98
40838;BME280;29632;49.168;9.848;2023-06-22T10:42:57;96707.47;;;34.29;39.56
40838;BME280;29632;49.168;9.848;2023-06-22T10:45:23;96697.06;;;34.36;39.58
40838;BME280;29632;49.168;9.848;2023-06-22T10:47:49;96699.88;;;34.45;39.83
40838;BME280;29632;49.168;9.848;2023-06-22T10:50:14;96689.16;;;34.53;39.38
40838;BME280;29632;49.168;9.848;2023-06-22T10:52:40;96680.84;;;34.64;39.06
40838;BME280;29632;49.168;9.848;2023-06-22T10:55:08;96684.47;;;34.73;39.20
40838;BME280;29632;49.168;9.848;2023-06-22T10:57:34;96686.66;;;34.85;39.26
40838;BME280;29632;49.168;9.848;2023-06-22T11:00:02;96685.41;;;34.91;38.92
40838;BME280;29632;49.168;9.848;2023-06-22T11:02:31;96673.69;;;34.95;39.33
40838;BME280;29632;49.168;9.848;2023-06-22T11:04:57;96666.75;;;35.03;39.07
40838;BME280;29632;49.168;9.848;2023-06-22T11:07:26;96659.84;;;35.11;39.19
40838;BME280;29632;49.168;9.848;2023-06-22T11:09:54;96642.06;;;35.18;38.58
40838;BME280;29632;49.168;9.848;2023-06-22T11:12:20;96633.53;;;35.25;38.60
40838;BME280;29632;49.168;9.848;2023-06-22T11:14:45;96616.38;;;35.30;38.51
40838;BME280;29632;49.168;9.848;2023-06-22T11:17:11;96599.41;;;35.38;38.88
40838;BME280;29632;49.168;9.848;2023-06-22T11:19:36;96604.06;;;35.46;38.54
40838;BME280;29632;49.168;9.848;2023-06-22T11:22:02;96618.56;;;35.50;38.17
40838;BME280;29632;49.168;9.848;2023-06-22T11:24:28;96623.56;;;35.57;38.58
40838;BME280;29632;49.168;9.848;2023-06-22T11:26:53;96627.75;;;35.63;38.34
40838;BME280;29632;49.168;9.848;2023-06-22T11:29:19;96631.91;;;35.69;38.20
40838;BME280;29632;49.168;9.848;2023-06-22T11:31:45;96633.13;;;35.77;38.26
40838;BME280;29632;49.168;9.848;2023-06-22T11:34:10;96624.03;;;35.82;37.79
40838;BME280;29632;49.168;9.848;2023-06-22T11:36:36;96617.69;;;35.86;38.24
40838;BME280;29632;49.168;9.848;2023-06-22T11:39:02;96617.06;;;35.89;37.89
40838;BME280;29632;49.168;9.848;2023-06-22T11:41:28;96604.34;;;35.99;37.95
40838;BME280;29632;49.168;9.848;2023-06-22T11:43:53;96592.75;;;36.07;37.73
40838;BME280;29632;49.168;9.848;2023-06-22T11:46:19;96592.28;;;36.14;37.48
40838;BME280;29632;49.168;9.848;2023-06-22T11:48:44;96597.06;;;36.17;37.46
40838;BME280;29632;49.168;9.848;2023-06-22T11:51:11;96589.97;;;36.21;37.45
40838;BME280;29632;49.168;9.848;2023-06-22T11:53:36;96590.63;;;36.26;37.61
40838;BME280;29632;49.168;9.848;2023-06-22T11:56:02;96588.06;;;36.30;37.37
40838;BME280;29632;49.168;9.848;2023-06-22T11:58:28;96591.09;;;36.37;37.37
40838;BME280;29632;49.168;9.848;2023-06-22T12:00:54;96584.91;;;36.45;37.24
40838;BME280;29632;49.168;9.848;2023-06-22T12:03:19;96586.66;;;36.50;37.33
40838;BME280;29632;49.168;9.848;2023-06-22T12:05:47;96584.63;;;36.56;37.38
40838;BME280;29632;49.168;9.848;2023-06-22T12:08:13;96583.16;;;36.58;37.44
40838;BME280;29632;49.168;9.848;2023-06-22T12:10:39;96577.44;;;36.60;37.09
40838;BME280;29632;49.168;9.848;2023-06-22T12:13:04;96579.50;;;36.63;37.09
40838;BME280;29632;49.168;9.848;2023-06-22T12:15:30;96584.28;;;36.66;36.68
40838;BME280;29632;49.168;9.848;2023-06-22T12:17:56;96582.06;;;36.68;37.10
40838;BME280;29632;49.168;9.848;2023-06-22T12:20:21;96576.34;;;36.70;36.92
40838;BME280;29632;49.168;9.848;2023-06-22T12:22:47;96575.22;;;36.71;37.03
40838;BME280;29632;49.168;9.848;2023-06-22T12:25:13;96575.53;;;36.69;37.22
40838;BME280;29632;49.168;9.848;2023-06-22T12:27:39;96577.63;;;36.72;36.92
40838;BME280;29632;49.168;9.848;2023-06-22T12:30:05;96582.25;;;36.72;36.92
40838;BME280;29632;49.168;9.848;2023-06-22T12:32:31;96580.19;;;36.69;37.02
40838;BME280;29632;49.168;9.848;2023-06-22T12:34:56;96590.53;;;36.66;37.06
40838;BME280;29632;49.168;9.848;2023-06-22T12:37:22;96593.22;;;36.66;36.90
40838;BME280;29632;49.168;9.848;2023-06-22T12:39:48;96592.75;;;36.64;36.71
40838;BME280;29632;49.168;9.848;2023-06-22T12:42:15;96596.09;;;36.61;36.81
40838;BME280;29632;49.168;9.848;2023-06-22T12:44:40;96599.75;;;36.57;36.76
40838;BME280;29632;49.168;9.848;2023-06-22T12:47:06;96594.31;;;36.57;36.84
40838;BME280;29632;49.168;9.848;2023-06-22T12:49:34;96601.34;;;36.58;36.59
40838;BME280;29632;49.168;9.848;2023-06-22T12:52:01;96599.13;;;36.60;36.66
40838;BME280;29632;49.168;9.848;2023-06-22T12:54:27;96594.19;;;36.62;36.40
40838;BME280;29632;49.168;9.848;2023-06-22T12:56:53;96597.38;;;36.64;36.25
40838;BME280;29632;49.168;9.848;2023-06-22T12:59:19;96591.94;;;36.64;36.21
40838;BME280;29632;49.168;9.848;2023-06-22T13:01:45;96592.75;;;36.64;36.50
40838;BME280;29632;49.168;9.848;2023-06-22T13:04:14;96587.34;;;36.64;36.31